Time;durP1;ratioP1;P1;durP2;ratioP2;P2;SDS_P1;SDS_P2;PMS_P1;PMS_P2;Temp;Humidity;BMP_temperature;BMP_pressure;BME280_temperature;BME280_humidity;BME280_pressure;Samples;Min_cycle;Max_cycle;Signal;HPM_P1;HPM_P2
2023/09/23 00:00:47;;;;;;;0.87;0.87;;;;;;;23.08;56.66;100970.28;4783031;30;21077;-78
2023/09/23 00:03:12;;;;;;;0.77;0.60;;;;;;;23.08;56.68;100974.84;4785654;29;20410;-80
2023/09/23 00:05:39;;;;;;;0.40;0.40;;;;;;;22.94;57.45;100974.34;4783901;29;20420;-78
2023/09/23 00:08:06;;;;;;;0.52;0.52;;;;;;;22.99;57.23;100968.19;4781893;29;20495;-78
2023/09/23 00:10:34;;;;;;;0.77;0.67;;;;;;;23.03;57.25;100966.63;4766973;30;20550;-77
2023/09/23 00:13:05;;;;;;;0.32;0.30;;;;;;;22.97;57.21;100963.00;4782710;29;20473;-79
2023/09/23 00:15:31;;;;;;;0.50;0.40;;;;;;;22.96;57.15;100958.69;4783391;29;20447;-79
2023/09/23 00:17:57;;;;;;;0.60;0.47;;;;;;;22.93;57.15;100956.47;4783532;29;20418;-78
2023/09/23 00:20:23;;;;;;;0.60;0.60;;;;;;;22.91;57.34;100954.00;4766988;30;20537;-78
2023/09/23 00:22:54;;;;;;;0.70;0.60;;;;;;;22.92;57.27;100952.13;4783071;29;20405;-77
2023/09/23 00:25:24;;;;;;;0.70;0.50;;;;;;;23.01;56.84;100933.59;4785076;29;20419;-76
2023/09/23 00:27:54;;;;;;;0.70;0.60;;;;;;;23.11;56.39;100933.78;4782483;29;20576;-79
2023/09/23 00:30:22;;;;;;;0.52;0.45;;;;;;;23.18;56.25;100925.50;4782465;29;20600;-79
2023/09/23 00:32:48;;;;;;;0.70;0.60;;;;;;;23.18;55.77;100923.63;4781755;30;20784;-78
2023/09/23 00:35:19;;;;;;;0.40;0.40;;;;;;;23.16;55.95;100927.66;4782108;30;20421;-78
2023/09/23 00:37:51;;;;;;;1.00;0.93;;;;;;;23.18;56.19;100928.22;4782037;30;20809;-79
2023/09/23 00:40:37;;;;;;;0.43;0.35;;;;;;;23.19;55.81;100930.69;4783129;29;20801;-78
2023/09/23 00:45:54;;;;;;;0.47;0.40;;;;;;;23.15;55.88;100943.03;5058275;27;20756;-78
2023/09/23 00:48:23;;;;;;;0.43;0.40;;;;;;;23.18;55.91;100953.38;5058338;28;20445;-78
2023/09/23 00:50:52;;;;;;;0.40;0.40;;;;;;;23.17;55.64;100943.59;5042255;28;20406;-78
2023/09/23 00:53:17;;;;;;;0.65;0.65;;;;;;;23.14;55.91;100937.88;5021921;28;20403;-77
2023/09/23 00:55:52;;;;;;;0.60;0.60;;;;;;;23.09;55.89;100942.16;5054355;28;20411;-78
2023/09/23 00:58:24;;;;;;;0.63;0.63;;;;;;;22.99;56.50;100944.66;5039609;28;20440;-78
2023/09/23 01:00:51;;;;;;;0.50;0.40;;;;;;;22.85;56.98;100944.19;5041406;28;20409;-81
2023/09/23 01:03:17;;;;;;;0.52;0.50;;;;;;;22.88;56.70;100940.97;5034512;28;20426;-80
2023/09/23 01:05:46;;;;;;;0.50;0.50;;;;;;;22.95;56.60;100951.63;5042268;28;20437;-79
2023/09/23 01:08:29;;;;;;;0.32;0.32;;;;;;;22.89;56.54;100942.63;5042187;28;20405;-78
2023/09/23 01:10:57;;;;;;;0.47;0.30;;;;;;;22.97;56.34;100937.88;5044232;28;20400;-78
2023/09/23 01:13:24;;;;;;;0.68;0.50;;;;;;;22.98;56.21;100940.34;5041629;28;20776;-77
2023/09/23 01:15:53;;;;;;;0.40;0.40;;;;;;;23.01;56.02;100939.84;5040924;28;20500;-76
2023/09/23 01:18:20;;;;;;;0.50;0.50;;;;;;;23.00;55.97;100934.69;5042439;28;20421;-76
2023/09/23 01:20:49;;;;;;;0.50;0.40;;;;;;;23.02;55.91;100936.06;5043908;28;20377;-76
2023/09/23 01:23:15;;;;;;;0.73;0.60;;;;;;;23.03;55.76;100934.16;5042013;28;20476;-77
2023/09/23 01:25:43;;;;;;;0.68;0.60;;;;;;;23.04;55.75;100927.69;5042546;28;20950;-76
2023/09/23 01:28:11;;;;;;;0.40;0.30;;;;;;;23.00;55.77;100921.97;5042160;28;20779;-77
2023/09/23 01:30:39;;;;;;;0.50;0.50;;;;;;;22.99;55.59;100927.63;5046023;28;20434;-77
2023/09/23 01:33:08;;;;;;;1.05;0.98;;;;;;;22.99;55.89;100936.53;5062426;28;20385;-78
2023/09/23 01:35:35;;;;;;;0.40;0.40;;;;;;;22.94;55.69;100944.59;5058301;28;20841;-80
2023/09/23 01:38:02;;;;;;;0.50;0.43;;;;;;;22.77;56.30;100952.69;5051702;28;20392;-79
2023/09/23 01:40:30;;;;;;;0.70;0.70;;;;;;;22.55;57.33;100958.00;5061490;28;20387;-78
2023/09/23 01:42:57;;;;;;;0.52;0.40;;;;;;;22.27;58.41;100959.69;5059583;28;20950;-79
2023/09/23 01:45:28;;;;;;;1.17;0.73;;;;;;;22.18;58.59;100952.19;5076942;28;20756;-80
2023/09/23 01:47:56;;;;;;;0.57;0.43;;;;;;;22.25;58.27;100947.44;5061553;28;20501;-79
2023/09/23 01:50:23;;;;;;;0.50;0.50;;;;;;;22.29;57.86;100938.66;5062782;28;20380;-80
2023/09/23 01:52:49;;;;;;;0.90;0.50;;;;;;;22.38;57.48;100939.06;5062639;28;20529;-80
2023/09/23 01:55:17;;;;;;;0.47;0.40;;;;;;;22.26;57.79;100947.25;5061173;28;20453;-81
2023/09/23 01:57:43;;;;;;;0.30;0.30;;;;;;;22.01;58.63;100952.94;5048620;28;20484;-79
2023/09/23 02:00:17;;;;;;;0.70;0.60;;;;;;;21.89;59.18;100950.28;5048487;28;20406;-80
2023/09/23 02:02:45;;;;;;;1.00;0.70;;;;;;;22.08;58.62;100956.31;5049605;28;20392;-79
2023/09/23 02:05:11;;;;;;;0.70;0.63;;;;;;;22.10;58.22;100953.38;5047101;28;20415;-80
2023/09/23 02:07:39;;;;;;;0.87;0.50;;;;;;;22.10;58.31;100965.00;5046611;28;20396;-80
2023/09/23 02:10:05;;;;;;;0.68;0.57;;;;;;;22.13;57.96;100961.81;5030105;28;20392;-79
2023/09/23 02:12:33;;;;;;;0.45;0.43;;;;;;;22.21;57.71;100965.22;5030318;28;20492;-81
2023/09/23 02:14:59;;;;;;;0.55;0.47;;;;;;;22.22;57.73;100958.72;5030299;28;20550;-82
2023/09/23 02:17:27;;;;;;;1.50;1.10;;;;;;;22.17;57.69;100959.47;5047547;28;20391;-78
2023/09/23 02:19:53;;;;;;;0.77;0.35;;;;;;;22.22;57.40;100970.38;5049402;28;20502;-79
2023/09/23 02:22:19;;;;;;;0.50;0.50;;;;;;;22.15;57.67;100964.28;5048696;28;20416;-79
2023/09/23 02:24:46;;;;;;;0.50;0.40;;;;;;;22.10;57.86;100970.41;5047148;28;20563;-80
2023/09/23 02:27:12;;;;;;;1.60;0.70;;;;;;;21.90;58.26;100975.41;5046726;28;20499;-77
2023/09/23 02:29:40;;;;;;;0.40;0.40;;;;;;;21.84;58.56;100982.59;5046683;28;20472;-81
2023/09/23 02:32:08;;;;;;;0.60;0.50;;;;;;;21.79;58.77;100982.47;5047184;28;20385;-79
2023/09/23 02:34:36;;;;;;;1.10;1.00;;;;;;;21.87;58.47;100983.97;5046926;28;20393;-81
2023/09/23 02:37:05;;;;;;;0.43;0.37;;;;;;;21.96;57.80;100982.53;5048992;28;20736;-81
2023/09/23 02:39:33;;;;;;;1.52;1.10;;;;;;;21.89;58.25;100990.75;5048004;28;20376;-80
2023/09/23 02:42:04;;;;;;;0.55;0.50;;;;;;;21.60;59.22;100986.38;5048169;28;20415;-80
2023/09/23 02:44:49;;;;;;;0.80;0.57;;;;;;;21.48;59.39;100973.72;5057968;28;20427;-81
2023/09/23 02:47:16;;;;;;;0.75;0.50;;;;;;;21.60;59.19;100991.78;5050758;28;20759;-79
2023/09/23 02:49:44;;;;;;;0.35;0.35;;;;;;;21.58;59.08;100984.72;5067309;28;20901;-82
2023/09/23 02:52:13;;;;;;;0.88;0.50;;;;;;;21.67;58.62;100985.19;5068344;28;20375;-79
2023/09/23 02:54:39;;;;;;;0.50;0.40;;;;;;;21.69;58.54;100984.94;5051072;28;20398;-80
2023/09/23 02:57:12;;;;;;;0.50;0.50;;;;;;;21.68;58.29;100994.09;5068579;28;20853;-80
2023/09/23 02:59:41;;;;;;;0.45;0.45;;;;;;;21.69;58.29;100995.75;5069745;28;20378;-78
2023/09/23 03:02:08;;;;;;;0.50;0.50;;;;;;;21.70;58.09;100994.69;5069172;28;20375;-79
2023/09/23 03:04:34;;;;;;;0.60;0.57;;;;;;;21.54;58.48;101002.44;5068032;28;20415;-79
2023/09/23 03:07:04;;;;;;;6.75;0.68;;;;;;;21.24;59.48;101005.22;5050958;28;20603;-78
2023/09/23 03:09:32;;;;;;;0.70;0.67;;;;;;;20.96;60.31;101011.31;5050665;28;20387;-79
2023/09/23 03:12:00;;;;;;;1.52;1.05;;;;;;;20.50;61.94;101012.78;5050995;28;20394;-79
2023/09/23 03:14:43;;;;;;;0.52;0.50;;;;;;;20.46;62.07;101017.81;5068527;28;20873;-81
2023/09/23 03:17:13;;;;;;;0.47;0.38;;;;;;;20.48;61.92;101017.59;5067553;28;20497;-77
2023/09/23 03:19:41;;;;;;;0.60;0.40;;;;;;;20.50;61.62;101018.16;5026097;28;20478;-79
2023/09/23 03:22:07;;;;;;;0.30;0.30;;;;;;;20.43;61.87;101016.38;5009991;28;20747;-80
2023/09/23 03:24:34;;;;;;;0.30;0.30;;;;;;;20.43;61.88;101015.56;5026639;28;20493;-80
2023/09/23 03:27:00;;;;;;;0.80;0.80;;;;;;;20.48;61.90;101004.94;5025963;28;20749;-78
2023/09/23 03:29:30;;;;;;;0.40;0.40;;;;;;;20.60;61.16;101005.81;5026042;28;21133;-80
2023/09/23 03:31:58;;;;;;;0.77;0.70;;;;;;;20.60;61.18;101013.06;5025666;28;20492;-80
2023/09/23 03:34:26;;;;;;;0.43;0.40;;;;;;;20.67;60.92;101004.91;5025820;28;20398;-80
2023/09/23 03:36:53;;;;;;;0.43;0.32;;;;;;;20.74;60.88;101011.84;5025593;28;20383;-80
2023/09/23 03:39:19;;;;;;;0.50;0.40;;;;;;;20.78;60.58;101017.59;5025769;28;20382;-79
2023/09/23 03:41:46;;;;;;;0.40;0.40;;;;;;;20.79;60.36;101016.53;5025490;28;20404;-79
2023/09/23 03:44:19;;;;;;;0.70;0.50;;;;;;;20.84;60.25;101003.19;5024992;28;20426;-81
2023/09/23 03:46:50;;;;;;;0.25;0.25;;;;;;;20.86;60.12;101008.34;5025439;28;20979;-79
2023/09/23 03:49:20;;;;;;;0.47;0.47;;;;;;;20.66;60.94;101016.75;5025566;28;20492;-77
2023/09/23 03:51:45;;;;;;;0.50;0.40;;;;;;;20.55;61.34;101013.75;5064734;28;20387;-78
2023/09/23 03:54:15;;;;;;;0.40;0.40;;;;;;;20.50;61.31;101018.16;5066812;28;20383;-81
2023/09/23 03:56:40;;;;;;;0.50;0.47;;;;;;;20.41;61.59;101031.13;5050219;28;20387;-76
2023/09/23 03:59:06;;;;;;;0.43;0.30;;;;;;;20.37;61.74;101027.25;5050501;28;20391;-79
2023/09/23 04:01:38;;;;;;;0.47;0.47;;;;;;;20.45;61.63;101029.63;5067749;28;20395;-78
2023/09/23 04:04:06;;;;;;;0.40;0.35;;;;;;;20.00;63.01;101028.09;5044136;28;20410;-78
2023/09/23 04:06:33;;;;;;;1.70;0.90;;;;;;;19.93;63.52;101030.03;5041614;28;20499;-79
2023/09/23 04:08:59;;;;;;;1.13;1.02;;;;;;;20.04;62.97;101028.47;5027306;28;20397;-80
2023/09/23 04:11:26;;;;;;;0.60;0.50;;;;;;;20.13;62.56;101037.91;5055761;28;20422;-79
2023/09/23 04:13:53;;;;;;;1.60;0.73;;;;;;;20.13;62.66;101042.44;5045697;28;20513;-84
2023/09/23 04:16:19;;;;;;;2.95;0.98;;;;;;;20.08;62.75;101045.00;5025594;28;20481;-82
2023/09/23 04:18:46;;;;;;;0.55;0.50;;;;;;;20.11;62.66;101055.31;5029481;28;20934;-82
2023/09/23 04:21:13;;;;;;;0.35;0.35;;;;;;;20.18;62.47;101050.69;5043144;28;20715;-83
2023/09/23 04:23:39;;;;;;;0.40;0.40;;;;;;;20.27;62.09;101059.28;5047639;28;20408;-82
2023/09/23 04:26:08;;;;;;;0.90;0.52;;;;;;;20.31;61.86;101060.44;5047310;28;20392;-84
2023/09/23 04:28:34;;;;;;;0.50;0.50;;;;;;;20.24;61.92;101056.00;5020613;28;20482;-84
2023/09/23 04:30:59;;;;;;;0.52;0.52;;;;;;;20.21;62.33;101064.50;5027060;28;20887;-83
2023/09/23 04:33:30;;;;;;;0.60;0.60;;;;;;;20.17;62.20;101062.50;5028125;28;20409;-82
2023/09/23 04:35:58;;;;;;;0.33;0.30;;;;;;;20.19;62.18;101074.69;5042174;28;20820;-85
2023/09/23 04:38:26;;;;;;;0.60;0.60;;;;;;;20.21;62.25;101077.97;5033899;28;20385;-83
2023/09/23 04:40:52;;;;;;;0.50;0.40;;;;;;;20.20;61.99;101078.19;5024694;28;20449;-81
2023/09/23 04:43:19;;;;;;;0.60;0.57;;;;;;;20.27;61.96;101078.94;5044968;28;20823;-84
2023/09/23 04:45:48;;;;;;;0.40;0.40;;;;;;;20.12;62.33;101073.13;5058593;28;20498;-83
2023/09/23 04:48:18;;;;;;;0.40;0.40;;;;;;;20.13;62.56;101080.13;5045994;28;20886;-82
2023/09/23 04:50:46;;;;;;;0.20;0.20;;;;;;;20.03;62.64;101070.72;5029327;28;20741;-84
2023/09/23 04:53:12;;;;;;;0.30;0.30;;;;;;;20.22;62.23;101078.78;5030629;28;20396;-84
2023/09/23 04:55:37;;;;;;;0.40;0.40;;;;;;;20.39;61.66;101065.53;5030136;28;20401;-83
2023/09/23 04:58:03;;;;;;;0.40;0.40;;;;;;;20.49;61.27;101073.06;5029616;28;20985;-83
2023/09/23 05:00:36;;;;;;;0.45;0.40;;;;;;;20.38;61.55;101080.03;5051342;28;20387;-84
2023/09/23 05:03:02;;;;;;;0.47;0.47;;;;;;;20.37;61.87;101075.72;5033294;28;20388;-82
2023/09/23 05:05:28;;;;;;;0.40;0.40;;;;;;;20.46;61.38;101081.63;5029343;28;20412;-82
2023/09/23 05:07:53;;;;;;;0.63;0.63;;;;;;;20.43;61.48;101086.38;5025026;28;20391;-81
2023/09/23 05:10:23;;;;;;;1.00;0.93;;;;;;;20.44;61.39;101088.03;5024776;28;20422;-85
2023/09/23 05:12:48;;;;;;;0.80;0.80;;;;;;;20.33;61.75;101085.28;5024711;28;20901;-83
2023/09/23 05:15:17;;;;;;;0.70;0.60;;;;;;;20.36;61.76;101090.22;5024924;28;20433;-82
2023/09/23 05:17:46;;;;;;;0.50;0.50;;;;;;;20.31;62.06;101103.53;5025359;28;20898;-83
2023/09/23 05:20:18;;;;;;;0.38;0.38;;;;;;;20.31;62.13;101103.53;5026586;28;20402;-82
2023/09/23 05:22:49;;;;;;;0.43;0.43;;;;;;;20.38;61.77;101099.72;5024883;28;20813;-82
2023/09/23 05:25:15;;;;;;;0.60;0.60;;;;;;;20.36;61.67;101099.09;5025356;28;20414;-82
2023/09/23 05:27:42;;;;;;;0.50;0.47;;;;;;;20.34;61.77;101101.22;5022712;28;20491;-82
2023/09/23 05:30:11;;;;;;;0.40;0.40;;;;;;;20.38;61.84;101097.03;5025108;28;20463;-83
2023/09/23 05:32:37;;;;;;;0.30;0.30;;;;;;;20.54;61.46;101105.53;5013842;28;20402;-84
2023/09/23 05:35:09;;;;;;;0.60;0.60;;;;;;;20.30;61.87;101091.13;5014329;28;21312;-83
2023/09/23 05:37:36;;;;;;;0.50;0.47;;;;;;;20.39;61.89;101111.31;5012971;28;20386;-85
2023/09/23 05:40:25;;;;;;;0.30;0.30;;;;;;;20.44;61.89;101119.53;5012592;28;20395;-82
2023/09/23 05:42:48;;;;;;;1.77;0.60;;;;;;;20.62;61.45;101116.84;5027769;28;20405;-82
2023/09/23 05:45:14;;;;;;;0.40;0.40;;;;;;;20.79;60.89;101116.22;5021267;28;20428;-82
2023/09/23 05:47:45;;;;;;;0.40;0.40;;;;;;;20.90;60.93;101120.00;5051814;28;20383;-87
2023/09/23 05:50:11;;;;;;;0.40;0.35;;;;;;;20.95;60.69;101122.84;5051066;28;20411;-83
2023/09/23 05:52:37;;;;;;;0.50;0.50;;;;;;;21.09;60.41;101127.00;5048666;28;20393;-81
2023/09/23 05:55:07;;;;;;;0.60;0.60;;;;;;;21.12;60.33;101125.69;5051018;28;20388;-87
2023/09/23 05:57:38;;;;;;;0.35;0.35;;;;;;;21.09;60.49;101121.59;5050670;28;20431;-83
2023/09/23 06:00:11;;;;;;;0.20;0.20;;;;;;;21.05;60.77;101122.28;5044744;28;20445;-83
2023/09/23 06:02:37;;;;;;;0.28;0.28;;;;;;;21.15;60.41;101127.94;5015238;28;20394;-82
2023/09/23 06:05:03;;;;;;;0.90;0.90;;;;;;;21.28;59.94;101133.13;5049431;28;20852;-81
2023/09/23 06:07:33;;;;;;;0.60;0.60;;;;;;;21.47;59.64;101139.31;5049262;28;20388;-83
2023/09/23 06:09:59;;;;;;;0.30;0.30;;;;;;;21.56;59.59;101146.00;5029070;28;20402;-84
2023/09/23 06:12:30;;;;;;;0.60;0.60;;;;;;;21.72;59.39;101140.97;5050169;28;20512;-84
2023/09/23 06:14:59;;;;;;;0.38;0.38;;;;;;;21.85;59.25;101148.03;5033287;28;20403;-83
2023/09/23 06:17:28;;;;;;;0.25;0.22;;;;;;;21.82;59.09;101143.09;5047657;28;20920;-85
2023/09/23 06:19:56;;;;;;;0.45;0.45;;;;;;;21.88;59.28;101150.25;5031929;28;20400;-83
2023/09/23 06:22:23;;;;;;;0.50;0.50;;;;;;;21.96;59.06;101152.59;5031986;28;20389;-83
2023/09/23 06:24:52;;;;;;;0.60;0.60;;;;;;;21.97;59.14;101146.16;5050158;28;20409;-79
2023/09/23 06:27:19;;;;;;;0.20;0.20;;;;;;;22.05;59.29;101144.97;5049823;28;20445;-82
2023/09/23 06:29:45;;;;;;;0.20;0.20;;;;;;;22.08;59.09;101142.63;5049628;28;20420;-80
2023/09/23 06:32:14;;;;;;;0.20;0.20;;;;;;;22.10;59.25;101147.78;5049530;28;20408;-79
2023/09/23 06:34:40;;;;;;;0.60;0.50;;;;;;;22.14;59.32;101141.66;5034424;28;20884;-82
2023/09/23 06:37:06;;;;;;;0.80;0.40;;;;;;;22.30;59.13;101148.25;5052077;28;20442;-80
2023/09/23 06:39:32;;;;;;;0.43;0.43;;;;;;;22.39;58.71;101142.47;5034470;28;20760;-80
2023/09/23 06:41:58;;;;;;;0.50;0.50;;;;;;;22.50;58.45;101158.66;5034100;28;20854;-84
2023/09/23 06:44:24;;;;;;;0.40;0.40;;;;;;;22.52;58.35;101153.81;5051391;28;20419;-80
2023/09/23 06:46:52;;;;;;;0.90;0.70;;;;;;;22.60;58.26;101165.31;5067057;28;20388;-82
2023/09/23 06:49:19;;;;;;;0.40;0.38;;;;;;;22.74;58.00;101172.09;5051933;28;20423;-79
2023/09/23 06:51:45;;;;;;;0.30;0.30;;;;;;;22.86;57.75;101164.75;5052393;28;20983;-81
2023/09/23 06:54:10;;;;;;;0.30;0.30;;;;;;;22.98;57.77;101170.13;5034044;28;20484;-79
2023/09/23 06:56:37;;;;;;;0.50;0.50;;;;;;;23.07;57.59;101159.78;5035273;28;20400;-80
2023/09/23 06:59:06;;;;;;;0.20;0.20;;;;;;;23.17;57.66;101165.38;5036748;28;20490;-81
2023/09/23 07:01:34;;;;;;;0.60;0.60;;;;;;;23.25;57.25;101153.34;5051922;28;20483;-80
2023/09/23 07:04:00;;;;;;;0.20;0.20;;;;;;;23.32;56.89;101159.44;5051463;28;20405;-80
2023/09/23 07:06:27;;;;;;;0.50;0.50;;;;;;;23.45;56.95;101161.81;5051637;28;20748;-79
2023/09/23 07:08:53;;;;;;;0.30;0.30;;;;;;;23.55;56.67;101158.47;5047249;28;20394;-82
2023/09/23 07:11:19;;;;;;;0.60;0.60;;;;;;;23.74;56.54;101159.00;5027983;28;20415;-79
2023/09/23 07:13:46;;;;;;;0.23;0.23;;;;;;;23.80;56.00;101152.63;5049535;28;20483;-81
2023/09/23 07:16:17;;;;;;;0.30;0.30;;;;;;;24.00;55.81;101164.84;5064813;28;20402;-82
2023/09/23 07:18:45;;;;;;;0.30;0.30;;;;;;;24.16;55.49;101161.25;5045525;28;20397;-81
2023/09/23 07:21:11;;;;;;;0.30;0.30;;;;;;;24.38;55.04;101163.19;5033772;28;20967;-81
2023/09/23 07:23:40;;;;;;;0.43;0.43;;;;;;;24.40;55.23;101158.34;5050537;28;20381;-83
2023/09/23 07:26:07;;;;;;;0.35;0.35;;;;;;;24.48;55.39;101162.50;5049229;28;20484;-83
2023/09/23 07:28:33;;;;;;;1.20;0.90;;;;;;;24.56;55.09;101153.94;5048985;28;20408;-81
2023/09/23 07:30:59;;;;;;;0.50;0.50;;;;;;;24.66;54.59;101150.56;5031010;28;20392;-81
2023/09/23 07:33:24;;;;;;;0.43;0.43;;;;;;;24.73;54.00;101156.59;5048144;28;20929;-80
2023/09/23 07:35:50;;;;;;;0.63;0.63;;;;;;;24.87;53.60;101152.41;5048519;28;20383;-81
2023/09/23 07:38:16;;;;;;;1.20;1.10;;;;;;;24.89;53.83;101146.75;5030789;28;20806;-82
2023/09/23 07:40:43;;;;;;;0.50;0.50;;;;;;;25.04;53.00;101156.94;5048306;28;20392;-82
2023/09/23 07:43:08;;;;;;;0.50;0.50;;;;;;;25.20;52.88;101161.41;5031123;28;20396;-80
2023/09/23 07:45:34;;;;;;;0.38;0.38;;;;;;;25.28;52.62;101150.13;5041290;28;20468;-81
2023/09/23 07:48:00;;;;;;;0.82;0.70;;;;;;;25.26;51.90;101149.56;5052146;28;20438;-80
2023/09/23 07:50:30;;;;;;;0.27;0.27;;;;;;;25.29;52.08;101151.75;5028159;28;20503;-82
2023/09/23 07:52:56;;;;;;;0.20;0.20;;;;;;;25.27;52.07;101140.34;5027989;28;20390;-81
2023/09/23 07:55:21;;;;;;;0.90;0.70;;;;;;;25.41;51.79;101139.91;5028984;28;20385;-81
2023/09/23 07:58:09;;;;;;;0.30;0.30;;;;;;;25.42;51.89;101134.22;5046462;28;20786;-80
2023/09/23 08:00:36;;;;;;;0.40;0.40;;;;;;;25.45;51.61;101141.84;5031480;28;20398;-84
2023/09/23 08:03:03;;;;;;;0.30;0.30;;;;;;;25.35;51.04;101145.31;5019942;28;20887;-83
2023/09/23 08:05:32;;;;;;;0.30;0.30;;;;;;;25.51;51.15;101159.81;5034928;28;20789;-81
2023/09/23 08:07:58;;;;;;;0.40;0.40;;;;;;;25.64;50.68;101149.59;5026164;28;20405;-80
2023/09/23 08:10:24;;;;;;;0.20;0.20;;;;;;;25.66;50.53;101144.72;5023632;23;20431;-81
2023/09/23 08:12:49;;;;;;;0.30;0.30;;;;;;;25.68;50.81;101145.28;5009066;28;20391;-80
2023/09/23 08:15:15;;;;;;;0.90;0.90;;;;;;;25.84;50.36;101141.59;5034275;28;20398;-80
2023/09/23 08:17:41;;;;;;;0.30;0.30;;;;;;;25.89;50.40;101130.78;5037561;28;20765;-81
2023/09/23 08:20:20;;;;;;;0.17;0.17;;;;;;;25.91;50.08;101134.03;5016838;28;20863;-80
2023/09/23 08:22:46;;;;;;;0.20;0.20;;;;;;;25.98;49.75;101139.25;5026162;28;20469;-82
2023/09/23 08:25:15;;;;;;;0.20;0.20;;;;;;;26.04;49.45;101138.22;5018639;28;20416;-84
2023/09/23 08:27:41;;;;;;;0.20;0.20;;;;;;;26.02;49.29;101136.81;5044657;28;20401;-80
2023/09/23 08:30:11;;;;;;;0.50;0.50;;;;;;;26.06;49.62;101127.09;5015204;28;20494;-80
2023/09/23 08:32:37;;;;;;;0.50;0.30;;;;;;;26.10;49.71;101139.06;5015834;28;20889;-80
2023/09/23 08:35:06;;;;;;;0.38;0.38;;;;;;;26.19;49.47;101129.31;5006117;28;20446;-82
2023/09/23 08:37:36;;;;;;;0.60;0.60;;;;;;;26.29;49.43;101131.28;5040067;28;20440;-81
2023/09/23 08:40:10;;;;;;;1.77;1.25;;;;;;;26.33;49.60;101126.94;5015484;28;20405;-81
2023/09/23 08:42:38;;;;;;;0.60;0.30;;;;;;;26.33;49.49;101125.03;5018455;28;20906;-81
2023/09/23 08:45:10;;;;;;;0.37;0.37;;;;;;;26.37;49.41;101114.44;5020736;28;20422;-81
2023/09/23 08:47:37;;;;;;;0.30;0.30;;;;;;;26.51;49.22;101125.66;5027494;28;20752;-84
2023/09/23 08:50:08;;;;;;;0.40;0.40;;;;;;;26.51;48.12;101122.94;5024364;28;20406;-78
2023/09/23 08:52:34;;;;;;;0.38;0.38;;;;;;;26.50;47.81;101103.06;5022538;28;20422;-80
2023/09/23 08:55:09;;;;;;;0.20;0.20;;;;;;;26.57;47.51;101108.25;5028753;28;20505;-82
2023/09/23 08:57:35;;;;;;;0.20;0.20;;;;;;;26.66;47.71;101112.09;5028602;28;20459;-81
2023/09/23 09:00:00;;;;;;;0.33;0.33;;;;;;;26.73;47.19;101113.78;5023784;28;20380;-86
2023/09/23 09:02:26;;;;;;;0.40;0.40;;;;;;;26.90;47.23;101119.78;5029673;28;20754;-85
2023/09/23 09:04:57;;;;;;;0.20;0.20;;;;;;;26.96;47.42;101124.16;5022953;28;20415;-82
2023/09/23 09:07:36;;;;;;;0.30;0.30;;;;;;;26.94;46.50;101114.59;5017503;28;20404;-82
2023/09/23 09:10:25;;;;;;;0.43;0.43;;;;;;;26.72;46.16;101103.97;5034896;28;20410;-81
2023/09/23 09:13:07;;;;;;;0.40;0.40;;;;;;;27.05;46.22;101099.94;5017807;28;20744;-77
2023/09/23 09:15:35;;;;;;;0.33;0.33;;;;;;;27.20;45.97;101099.94;5011534;28;20403;-81
2023/09/23 09:18:02;;;;;;;0.30;0.30;;;;;;;27.20;45.80;101093.69;5015699;28;20503;-79
2023/09/23 09:20:33;;;;;;;0.90;0.40;;;;;;;27.36;45.85;101095.34;5011616;28;20406;-83
2023/09/23 09:22:59;;;;;;;0.60;0.40;;;;;;;27.34;45.66;101102.97;5010611;28;20396;-78
2023/09/23 09:25:24;;;;;;;1.40;1.10;;;;;;;27.43;45.32;101098.59;5010226;28;20415;-79
2023/09/23 09:27:53;;;;;;;0.60;0.60;;;;;;;27.46;45.35;101102.69;5011232;28;20411;-81
2023/09/23 09:30:19;;;;;;;0.63;0.63;;;;;;;27.54;45.12;101104.03;5009588;28;20736;-81
2023/09/23 09:32:50;;;;;;;0.20;0.20;;;;;;;27.65;45.57;101098.28;5017306;28;20420;-84
2023/09/23 09:35:31;;;;;;;0.20;0.20;;;;;;;27.64;45.50;101093.94;5044495;28;20402;-83
2023/09/23 09:38:00;;;;;;;0.30;0.30;;;;;;;27.78;45.19;101094.16;5016235;28;20400;-82
2023/09/23 09:40:29;;;;;;;0.35;0.35;;;;;;;27.86;44.88;101092.81;5029826;28;20481;-82
2023/09/23 09:42:55;;;;;;;0.30;0.30;;;;;;;27.81;45.10;101084.63;5024851;28;20442;-83
2023/09/23 09:45:22;;;;;;;0.60;0.50;;;;;;;27.80;45.20;101083.84;5020993;28;20425;-84
2023/09/23 09:47:54;;;;;;;0.30;0.30;;;;;;;27.90;44.96;101071.28;5031165;28;20403;-81
2023/09/23 09:50:23;;;;;;;0.50;0.50;;;;;;;28.01;44.71;101070.16;5017183;28;20427;-82
2023/09/23 09:52:49;;;;;;;0.30;0.30;;;;;;;28.09;44.02;101071.47;5021089;28;20410;-83
2023/09/23 09:55:18;;;;;;;0.67;0.67;;;;;;;28.20;43.98;101065.72;5029332;28;20390;-81
2023/09/23 09:57:52;;;;;;;1.80;0.85;;;;;;;28.32;44.24;101067.28;5043486;28;20402;-83
2023/09/23 10:00:28;;;;;;;0.52;0.50;;;;;;;28.30;44.42;101048.47;5046778;28;20470;-81
2023/09/23 10:03:12;;;;;;;1.10;1.00;;;;;;;28.42;44.08;101056.34;5047385;28;20439;-80
2023/09/23 10:05:46;;;;;;;0.27;0.27;;;;;;;28.51;44.24;101053.84;5047093;28;20961;-81
2023/09/23 10:08:24;;;;;;;0.28;0.28;;;;;;;28.54;44.46;101053.28;5047081;28;20407;-80
2023/09/23 10:10:58;;;;;;;0.47;0.47;;;;;;;28.57;44.12;101060.91;5048535;28;20404;-81
2023/09/23 10:13:37;;;;;;;0.30;0.30;;;;;;;28.66;44.10;101047.47;5028795;28;20930;-82
2023/09/23 10:16:11;;;;;;;0.30;0.30;;;;;;;28.75;43.46;101045.78;5032255;28;20921;-78
2023/09/23 10:18:39;;;;;;;0.35;0.32;;;;;;;28.83;43.62;101044.34;5046619;28;20442;-79
2023/09/23 10:21:05;;;;;;;2.20;1.30;;;;;;;28.86;43.57;101035.59;5046355;28;20503;-81
2023/09/23 10:23:39;;;;;;;0.20;0.20;;;;;;;29.01;42.59;101031.91;5045808;28;20407;-81
2023/09/23 10:26:18;;;;;;;0.40;0.40;;;;;;;29.06;42.80;101021.75;5026120;28;22594;-82
2023/09/23 10:29:08;;;;;;;0.35;0.35;;;;;;;29.08;42.59;101025.06;5044158;28;20397;-81
2023/09/23 10:31:38;;;;;;;0.20;0.20;;;;;;;29.18;42.37;101021.44;5043798;28;20433;-80
2023/09/23 10:34:08;;;;;;;0.20;0.20;;;;;;;29.11;43.04;101019.00;5032179;28;20378;-81
2023/09/23 10:36:38;;;;;;;0.28;0.25;;;;;;;29.15;41.75;101020.09;5014736;28;20838;-81
2023/09/23 10:39:15;;;;;;;0.17;0.17;;;;;;;29.25;41.89;101010.97;5014212;28;20936;-81
2023/09/23 10:41:41;;;;;;;0.30;0.30;;;;;;;29.39;41.39;101002.09;5032945;28;20432;-82
2023/09/23 10:44:14;;;;;;;0.30;0.30;;;;;;;29.57;40.88;101011.44;5047513;28;20383;-84
2023/09/23 10:46:43;;;;;;;0.30;0.30;;;;;;;29.64;39.91;101003.72;5032024;28;20395;-80
2023/09/23 10:49:13;;;;;;;2.53;0.93;;;;;;;29.65;39.60;100988.97;5032272;28;20761;-81
2023/09/23 10:51:43;;;;;;;0.30;0.30;;;;;;;29.66;39.36;100998.81;5045951;28;20390;-82
2023/09/23 10:54:16;;;;;;;0.68;0.68;;;;;;;29.79;38.54;100984.44;5032587;28;20390;-79
2023/09/23 10:56:42;;;;;;;0.35;0.35;;;;;;;29.88;38.75;100984.63;5030463;28;20382;-80
2023/09/23 10:59:08;;;;;;;0.30;0.30;;;;;;;29.89;38.24;100980.75;5032780;28;20405;-83
2023/09/23 11:01:33;;;;;;;0.40;0.40;;;;;;;30.03;38.52;100975.38;5048095;28;20395;-86
2023/09/23 11:03:59;;;;;;;1.23;1.10;;;;;;;30.09;38.33;100971.50;5031633;28;20397;-87
2023/09/23 11:06:25;;;;;;;0.30;0.30;;;;;;;30.09;37.77;100971.50;5031519;28;20386;-85
2023/09/23 11:08:51;;;;;;;0.30;0.30;;;;;;;30.20;37.79;100970.22;5026525;28;20406;-86
2023/09/23 11:11:17;;;;;;;0.30;0.30;;;;;;;30.32;37.89;100958.81;5029421;28;20405;-86
2023/09/23 11:13:43;;;;;;;0.20;0.20;;;;;;;30.30;37.40;100963.78;5031708;28;20822;-83
2023/09/23 11:16:09;;;;;;;0.20;0.20;;;;;;;30.30;36.88;100952.84;5032579;28;20422;-82
2023/09/23 11:18:37;;;;;;;0.40;0.40;;;;;;;30.47;37.14;100950.41;5030742;28;20409;-82
2023/09/23 11:21:03;;;;;;;0.40;0.40;;;;;;;30.63;37.01;100934.56;5032154;28;20383;-83
2023/09/23 11:23:29;;;;;;;0.50;0.50;;;;;;;30.64;36.07;100927.97;5032246;28;20386;-83
2023/09/23 11:25:57;;;;;;;0.50;0.50;;;;;;;30.76;36.16;100911.06;5047473;28;20402;-84
2023/09/23 11:28:24;;;;;;;0.50;0.50;;;;;;;30.85;35.80;100900.25;5046178;28;20846;-84
2023/09/23 11:30:52;;;;;;;0.40;0.40;;;;;;;31.11;35.96;100911.53;5032232;28;20390;-84
2023/09/23 11:33:18;;;;;;;0.57;0.50;;;;;;;31.15;35.67;100907.09;5030238;28;20394;-83